sensor_id;sensor_type;location;lat;lon;timestamp;temperature;humidity
21944;DHT22;11136;48.778;9.126;2022-07-29T00:01:33;24.10;81.70
21944;DHT22;11136;48.778;9.126;2022-07-29T00:03:59;23.80;81.70
21944;DHT22;11136;48.778;9.126;2022-07-29T00:06:24;23.70;82.00
21944;DHT22;11136;48.778;9.126;2022-07-29T00:08:50;23.70;82.10
21944;DHT22;11136;48.778;9.126;2022-07-29T00:11:15;23.70;82.20
21944;DHT22;11136;48.778;9.126;2022-07-29T00:13:41;23.60;82.20
21944;DHT22;11136;48.778;9.126;2022-07-29T00:16:06;23.60;82.40
21944;DHT22;11136;48.778;9.126;2022-07-29T00:18:32;23.50;82.60
21944;DHT22;11136;48.778;9.126;2022-07-29T00:20:57;23.50;82.70
21944;DHT22;11136;48.778;9.126;2022-07-29T00:23:23;23.50;83.30
21944;DHT22;11136;48.778;9.126;2022-07-29T00:25:48;23.50;83.40
21944;DHT22;11136;48.778;9.126;2022-07-29T00:28:14;23.40;83.80
21944;DHT22;11136;48.778;9.126;2022-07-29T00:30:39;23.40;84.00
21944;DHT22;11136;48.778;9.126;2022-07-29T00:33:08;23.30;84.10
21944;DHT22;11136;48.778;9.126;2022-07-29T00:35:33;23.30;84.40
21944;DHT22;11136;48.778;9.126;2022-07-29T00:38:16;23.30;84.40
21944;DHT22;11136;48.778;9.126;2022-07-29T00:40:42;23.30;84.60
21944;DHT22;11136;48.778;9.126;2022-07-29T00:43:08;23.20;84.70
21944;DHT22;11136;48.778;9.126;2022-07-29T00:45:34;23.20;84.70
21944;DHT22;11136;48.778;9.126;2022-07-29T00:48:00;23.20;84.90
21944;DHT22;11136;48.778;9.126;2022-07-29T00:50:26;23.20;85.00
21944;DHT22;11136;48.778;9.126;2022-07-29T00:52:52;23.20;85.00
21944;DHT22;11136;48.778;9.126;2022-07-29T00:55:18;23.20;85.10
21944;DHT22;11136;48.778;9.126;2022-07-29T00:57:44;23.20;84.90
21944;DHT22;11136;48.778;9.126;2022-07-29T01:00:12;23.20;85.00
21944;DHT22;11136;48.778;9.126;2022-07-29T01:02:38;23.20;85.00
21944;DHT22;11136;48.778;9.126;2022-07-29T01:05:04;23.20;84.80
21944;DHT22;11136;48.778;9.126;2022-07-29T01:07:32;23.20;84.80
21944;DHT22;11136;48.778;9.126;2022-07-29T01:09:59;23.20;84.90
21944;DHT22;11136;48.778;9.126;2022-07-29T01:12:26;23.20;84.80
21944;DHT22;11136;48.778;9.126;2022-07-29T01:14:54;23.10;85.70
21944;DHT22;11136;48.778;9.126;2022-07-29T01:17:25;23.10;85.00
21944;DHT22;11136;48.778;9.126;2022-07-29T01:30:22;23.00;85.30
21944;DHT22;11136;48.778;9.126;2022-07-29T01:32:56;22.90;85.20
21944;DHT22;11136;48.778;9.126;2022-07-29T01:35:26;22.90;85.50
21944;DHT22;11136;48.778;9.126;2022-07-29T01:38:12;22.90;85.60
21944;DHT22;11136;48.778;9.126;2022-07-29T01:40:48;22.90;85.70
21944;DHT22;11136;48.778;9.126;2022-07-29T01:43:21;22.90;85.90
21944;DHT22;11136;48.778;9.126;2022-07-29T01:45:59;22.80;85.80
21944;DHT22;11136;48.778;9.126;2022-07-29T01:48:39;22.80;85.90
21944;DHT22;11136;48.778;9.126;2022-07-29T01:51:16;22.80;86.00
21944;DHT22;11136;48.778;9.126;2022-07-29T01:54:04;22.70;86.00
21944;DHT22;11136;48.778;9.126;2022-07-29T01:56:32;22.70;86.20
21944;DHT22;11136;48.778;9.126;2022-07-29T01:58:59;22.70;86.10
21944;DHT22;11136;48.778;9.126;2022-07-29T02:01:26;22.70;86.20
21944;DHT22;11136;48.778;9.126;2022-07-29T02:03:53;22.70;86.30
21944;DHT22;11136;48.778;9.126;2022-07-29T02:06:21;22.60;86.50
21944;DHT22;11136;48.778;9.126;2022-07-29T02:08:48;22.60;86.70
21944;DHT22;11136;48.778;9.126;2022-07-29T02:11:15;22.60;86.80
21944;DHT22;11136;48.778;9.126;2022-07-29T02:13:41;22.50;86.90
21944;DHT22;11136;48.778;9.126;2022-07-29T02:16:09;22.50;87.00
21944;DHT22;11136;48.778;9.126;2022-07-29T02:18:37;22.50;87.20
21944;DHT22;11136;48.778;9.126;2022-07-29T02:21:03;22.50;87.20
21944;DHT22;11136;48.778;9.126;2022-07-29T02:23:31;22.50;87.20
21944;DHT22;11136;48.778;9.126;2022-07-29T02:25:59;22.40;87.30
21944;DHT22;11136;48.778;9.126;2022-07-29T02:28:27;22.50;87.40
21944;DHT22;11136;48.778;9.126;2022-07-29T02:30:55;22.40;87.50
21944;DHT22;11136;48.778;9.126;2022-07-29T02:33:21;22.40;87.60
21944;DHT22;11136;48.778;9.126;2022-07-29T02:35:50;22.40;87.60
21944;DHT22;11136;48.778;9.126;2022-07-29T02:38:16;22.40;87.90
21944;DHT22;11136;48.778;9.126;2022-07-29T02:41:05;22.30;87.90
21944;DHT22;11136;48.778;9.126;2022-07-29T02:43:34;22.30;87.90
21944;DHT22;11136;48.778;9.126;2022-07-29T02:46:02;22.30;88.10
21944;DHT22;11136;48.778;9.126;2022-07-29T02:48:37;22.20;88.20
21944;DHT22;11136;48.778;9.126;2022-07-29T02:51:19;22.20;89.10
21944;DHT22;11136;48.778;9.126;2022-07-29T02:53:50;22.20;88.60
21944;DHT22;11136;48.778;9.126;2022-07-29T02:56:16;22.10;88.80
21944;DHT22;11136;48.778;9.126;2022-07-29T02:58:51;22.10;88.30
21944;DHT22;11136;48.778;9.126;2022-07-29T03:01:26;22.00;88.70
21944;DHT22;11136;48.778;9.126;2022-07-29T03:03:54;22.00;89.00
21944;DHT22;11136;48.778;9.126;2022-07-29T03:06:22;22.00;89.20
21944;DHT22;11136;48.778;9.126;2022-07-29T03:08:49;22.00;89.50
21944;DHT22;11136;48.778;9.126;2022-07-29T03:11:15;22.00;89.70
21944;DHT22;11136;48.778;9.126;2022-07-29T03:13:42;22.00;89.80
21944;DHT22;11136;48.778;9.126;2022-07-29T03:16:10;22.00;89.90
21944;DHT22;11136;48.778;9.126;2022-07-29T03:18:36;22.00;90.00
21944;DHT22;11136;48.778;9.126;2022-07-29T03:21:03;22.00;90.00
21944;DHT22;11136;48.778;9.126;2022-07-29T03:23:29;22.00;90.00
21944;DHT22;11136;48.778;9.126;2022-07-29T03:25:55;22.00;90.00
21944;DHT22;11136;48.778;9.126;2022-07-29T03:28:20;22.00;90.10
21944;DHT22;11136;48.778;9.126;2022-07-29T03:30:47;21.90;90.10
21944;DHT22;11136;48.778;9.126;2022-07-29T03:33:12;22.00;90.20
21944;DHT22;11136;48.778;9.126;2022-07-29T03:35:38;22.00;90.20
21944;DHT22;11136;48.778;9.126;2022-07-29T03:38:04;21.90;90.20
21944;DHT22;11136;48.778;9.126;2022-07-29T03:40:34;21.80;90.20
21944;DHT22;11136;48.778;9.126;2022-07-29T03:43:02;21.90;90.40
21944;DHT22;11136;48.778;9.126;2022-07-29T03:45:31;21.80;90.40
21944;DHT22;11136;48.778;9.126;2022-07-29T03:48:02;21.80;90.50
21944;DHT22;11136;48.778;9.126;2022-07-29T03:50:30;21.80;90.50
21944;DHT22;11136;48.778;9.126;2022-07-29T03:52:56;21.80;90.50
21944;DHT22;11136;48.778;9.126;2022-07-29T03:55:21;21.70;90.60
21944;DHT22;11136;48.778;9.126;2022-07-29T03:57:49;21.70;90.60
21944;DHT22;11136;48.778;9.126;2022-07-29T04:00:15;21.70;90.70
21944;DHT22;11136;48.778;9.126;2022-07-29T04:02:43;21.70;90.70
21944;DHT22;11136;48.778;9.126;2022-07-29T04:05:12;21.70;90.80
21944;DHT22;11136;48.778;9.126;2022-07-29T04:07:38;21.60;90.80
21944;DHT22;11136;48.778;9.126;2022-07-29T04:10:04;21.60;90.90
21944;DHT22;11136;48.778;9.126;2022-07-29T04:12:30;21.60;91.00
21944;DHT22;11136;48.778;9.126;2022-07-29T04:14:55;21.60;91.10
21944;DHT22;11136;48.778;9.126;2022-07-29T04:17:21;21.60;91.20
21944;DHT22;11136;48.778;9.126;2022-07-29T04:19:46;21.60;91.20
21944;DHT22;11136;48.778;9.126;2022-07-29T04:22:12;21.60;91.20
21944;DHT22;11136;48.778;9.126;2022-07-29T04:24:37;21.60;91.30
21944;DHT22;11136;48.778;9.126;2022-07-29T04:27:03;21.60;91.40
21944;DHT22;11136;48.778;9.126;2022-07-29T04:29:28;21.50;91.40
21944;DHT22;11136;48.778;9.126;2022-07-29T04:31:54;21.50;91.40
21944;DHT22;11136;48.778;9.126;2022-07-29T04:34:19;21.50;91.50
21944;DHT22;11136;48.778;9.126;2022-07-29T04:36:45;21.70;91.60
21944;DHT22;11136;48.778;9.126;2022-07-29T04:39:10;21.50;91.60
21944;DHT22;11136;48.778;9.126;2022-07-29T04:41:36;21.50;91.50
21944;DHT22;11136;48.778;9.126;2022-07-29T04:44:02;21.50;91.50
21944;DHT22;11136;48.778;9.126;2022-07-29T04:46:30;21.50;91.60
21944;DHT22;11136;48.778;9.126;2022-07-29T04:48:56;21.50;91.60
21944;DHT22;11136;48.778;9.126;2022-07-29T04:51:21;21.50;91.60
21944;DHT22;11136;48.778;9.126;2022-07-29T04:53:47;21.40;91.60
21944;DHT22;11136;48.778;9.126;2022-07-29T04:56:13;21.40;91.80
21944;DHT22;11136;48.778;9.126;2022-07-29T04:58:38;21.40;91.80
21944;DHT22;11136;48.778;9.126;2022-07-29T05:01:04;21.40;91.90
21944;DHT22;11136;48.778;9.126;2022-07-29T05:03:30;21.40;91.80
21944;DHT22;11136;48.778;9.126;2022-07-29T05:05:55;21.40;91.90
21944;DHT22;11136;48.778;9.126;2022-07-29T05:08:21;21.40;91.90
21944;DHT22;11136;48.778;9.126;2022-07-29T05:10:46;21.40;91.90
21944;DHT22;11136;48.778;9.126;2022-07-29T05:13:12;21.40;92.00
21944;DHT22;11136;48.778;9.126;2022-07-29T05:15:37;21.40;92.00
21944;DHT22;11136;48.778;9.126;2022-07-29T05:18:04;21.40;92.00
21944;DHT22;11136;48.778;9.126;2022-07-29T05:20:30;21.50;92.10
21944;DHT22;11136;48.778;9.126;2022-07-29T05:22:56;21.50;92.10
21944;DHT22;11136;48.778;9.126;2022-07-29T05:25:23;21.50;92.10
21944;DHT22;11136;48.778;9.126;2022-07-29T05:27:49;21.60;92.10
21944;DHT22;11136;48.778;9.126;2022-07-29T05:30:14;21.60;92.00
21944;DHT22;11136;48.778;9.126;2022-07-29T05:32:40;21.60;92.10
21944;DHT22;11136;48.778;9.126;2022-07-29T05:35:06;21.60;92.10
21944;DHT22;11136;48.778;9.126;2022-07-29T05:37:32;21.60;92.20
21944;DHT22;11136;48.778;9.126;2022-07-29T05:39:58;21.70;92.20
21944;DHT22;11136;48.778;9.126;2022-07-29T05:42:24;21.80;92.20
21944;DHT22;11136;48.778;9.126;2022-07-29T05:44:50;21.70;92.20
21944;DHT22;11136;48.778;9.126;2022-07-29T05:47:17;21.80;92.20
21944;DHT22;11136;48.778;9.126;2022-07-29T05:49:42;21.80;92.20
21944;DHT22;11136;48.778;9.126;2022-07-29T05:52:08;21.80;92.30
21944;DHT22;11136;48.778;9.126;2022-07-29T05:54:34;21.90;92.30
21944;DHT22;11136;48.778;9.126;2022-07-29T05:57:00;21.90;92.30
21944;DHT22;11136;48.778;9.126;2022-07-29T05:59:25;21.90;92.20
21944;DHT22;11136;48.778;9.126;2022-07-29T06:01:51;22.00;92.20
21944;DHT22;11136;48.778;9.126;2022-07-29T06:04:17;22.00;92.20
21944;DHT22;11136;48.778;9.126;2022-07-29T06:06:42;22.10;92.20
21944;DHT22;11136;48.778;9.126;2022-07-29T06:09:08;22.10;92.20
21944;DHT22;11136;48.778;9.126;2022-07-29T06:11:33;22.20;92.20
21944;DHT22;11136;48.778;9.126;2022-07-29T06:13:59;22.30;92.30
21944;DHT22;11136;48.778;9.126;2022-07-29T06:16:24;22.30;92.20
21944;DHT22;11136;48.778;9.126;2022-07-29T06:18:50;22.40;92.20
21944;DHT22;11136;48.778;9.126;2022-07-29T06:21:15;22.50;92.30
21944;DHT22;11136;48.778;9.126;2022-07-29T06:23:42;22.60;92.20
21944;DHT22;11136;48.778;9.126;2022-07-29T06:26:07;22.70;91.90
21944;DHT22;11136;48.778;9.126;2022-07-29T06:28:34;22.80;91.70
21944;DHT22;11136;48.778;9.126;2022-07-29T06:30:59;22.80;91.40
21944;DHT22;11136;48.778;9.126;2022-07-29T06:33:25;22.80;91.30
21944;DHT22;11136;48.778;9.126;2022-07-29T06:35:50;22.90;91.30
21944;DHT22;11136;48.778;9.126;2022-07-29T06:38:16;23.00;91.20
21944;DHT22;11136;48.778;9.126;2022-07-29T06:40:42;23.00;90.90
21944;DHT22;11136;48.778;9.126;2022-07-29T06:43:29;23.10;90.90
21944;DHT22;11136;48.778;9.126;2022-07-29T06:45:58;23.10;90.90
21944;DHT22;11136;48.778;9.126;2022-07-29T06:48:23;23.10;90.80
21944;DHT22;11136;48.778;9.126;2022-07-29T06:50:49;23.20;90.80
21944;DHT22;11136;48.778;9.126;2022-07-29T06:53:14;23.30;90.70
21944;DHT22;11136;48.778;9.126;2022-07-29T06:55:40;23.30;90.70
21944;DHT22;11136;48.778;9.126;2022-07-29T06:58:06;23.40;90.60
21944;DHT22;11136;48.778;9.126;2022-07-29T07:00:33;23.40;90.40
21944;DHT22;11136;48.778;9.126;2022-07-29T07:02:58;23.50;90.30
21944;DHT22;11136;48.778;9.126;2022-07-29T07:05:24;23.50;90.10
21944;DHT22;11136;48.778;9.126;2022-07-29T07:07:49;23.50;90.10
21944;DHT22;11136;48.778;9.126;2022-07-29T07:10:15;23.60;90.00
21944;DHT22;11136;48.778;9.126;2022-07-29T07:12:40;23.60;90.10
21944;DHT22;11136;48.778;9.126;2022-07-29T07:15:06;23.70;90.30
21944;DHT22;11136;48.778;9.126;2022-07-29T07:17:31;23.70;90.10
21944;DHT22;11136;48.778;9.126;2022-07-29T07:19:57;23.80;90.10
21944;DHT22;11136;48.778;9.126;2022-07-29T07:22:23;23.80;90.00
21944;DHT22;11136;48.778;9.126;2022-07-29T07:24:48;23.90;90.00
21944;DHT22;11136;48.778;9.126;2022-07-29T07:27:14;24.00;90.00
21944;DHT22;11136;48.778;9.126;2022-07-29T07:29:39;24.00;90.00
21944;DHT22;11136;48.778;9.126;2022-07-29T07:32:06;24.10;89.60
21944;DHT22;11136;48.778;9.126;2022-07-29T07:34:32;24.20;89.30
21944;DHT22;11136;48.778;9.126;2022-07-29T07:36:58;24.20;89.00
21944;DHT22;11136;48.778;9.126;2022-07-29T07:39:23;24.30;88.50
21944;DHT22;11136;48.778;9.126;2022-07-29T07:41:50;24.40;87.90
21944;DHT22;11136;48.778;9.126;2022-07-29T07:44:15;24.50;87.50
21944;DHT22;11136;48.778;9.126;2022-07-29T07:46:41;24.50;87.50
21944;DHT22;11136;48.778;9.126;2022-07-29T07:49:06;24.60;87.20
21944;DHT22;11136;48.778;9.126;2022-07-29T07:51:32;24.60;86.70
21944;DHT22;11136;48.778;9.126;2022-07-29T07:53:58;24.80;86.30
21944;DHT22;11136;48.778;9.126;2022-07-29T07:56:23;24.80;86.20
21944;DHT22;11136;48.778;9.126;2022-07-29T07:58:49;24.90;86.70
21944;DHT22;11136;48.778;9.126;2022-07-29T08:01:14;25.00;85.50
21944;DHT22;11136;48.778;9.126;2022-07-29T08:03:44;25.00;84.90
21944;DHT22;11136;48.778;9.126;2022-07-29T08:06:09;25.00;84.70
21944;DHT22;11136;48.778;9.126;2022-07-29T08:08:35;25.10;84.30
21944;DHT22;11136;48.778;9.126;2022-07-29T08:11:01;25.20;84.10
21944;DHT22;11136;48.778;9.126;2022-07-29T08:13:27;25.20;83.60
21944;DHT22;11136;48.778;9.126;2022-07-29T08:15:53;25.30;83.30
21944;DHT22;11136;48.778;9.126;2022-07-29T08:18:31;25.30;82.90
21944;DHT22;11136;48.778;9.126;2022-07-29T08:20:57;25.40;82.50
21944;DHT22;11136;48.778;9.126;2022-07-29T08:23:23;25.40;81.40
21944;DHT22;11136;48.778;9.126;2022-07-29T08:25:49;25.60;81.30
21944;DHT22;11136;48.778;9.126;2022-07-29T08:28:15;25.60;80.50
21944;DHT22;11136;48.778;9.126;2022-07-29T08:30:41;25.60;80.60
21944;DHT22;11136;48.778;9.126;2022-07-29T08:33:06;25.70;80.50
21944;DHT22;11136;48.778;9.126;2022-07-29T08:35:32;25.80;79.80
21944;DHT22;11136;48.778;9.126;2022-07-29T08:37:58;25.90;78.90
21944;DHT22;11136;48.778;9.126;2022-07-29T08:40:24;26.10;78.90
21944;DHT22;11136;48.778;9.126;2022-07-29T08:42:50;26.40;78.60
21944;DHT22;11136;48.778;9.126;2022-07-29T08:45:16;26.70;77.50
21944;DHT22;11136;48.778;9.126;2022-07-29T08:47:44;26.80;76.50
21944;DHT22;11136;48.778;9.126;2022-07-29T08:50:10;26.90;75.70
21944;DHT22;11136;48.778;9.126;2022-07-29T08:52:39;27.20;75.30
21944;DHT22;11136;48.778;9.126;2022-07-29T08:55:09;27.40;74.80
21944;DHT22;11136;48.778;9.126;2022-07-29T08:57:35;27.60;73.50
21944;DHT22;11136;48.778;9.126;2022-07-29T09:00:04;27.70;73.50
21944;DHT22;11136;48.778;9.126;2022-07-29T09:02:35;27.80;72.80
21944;DHT22;11136;48.778;9.126;2022-07-29T09:05:04;27.70;72.70
21944;DHT22;11136;48.778;9.126;2022-07-29T09:07:31;27.70;72.90
21944;DHT22;11136;48.778;9.126;2022-07-29T09:09:57;27.60;72.90
21944;DHT22;11136;48.778;9.126;2022-07-29T09:12:23;27.60;72.50
21944;DHT22;11136;48.778;9.126;2022-07-29T09:14:50;27.60;72.60
21944;DHT22;11136;48.778;9.126;2022-07-29T09:17:15;27.60;71.70
21944;DHT22;11136;48.778;9.126;2022-07-29T09:19:43;27.60;71.50
21944;DHT22;11136;48.778;9.126;2022-07-29T09:22:08;27.60;71.80
21944;DHT22;11136;48.778;9.126;2022-07-29T09:24:44;27.70;71.80
21944;DHT22;11136;48.778;9.126;2022-07-29T09:27:21;28.00;71.50
21944;DHT22;11136;48.778;9.126;2022-07-29T09:29:58;28.30;71.00
21944;DHT22;11136;48.778;9.126;2022-07-29T09:32:24;28.60;69.90
21944;DHT22;11136;48.778;9.126;2022-07-29T09:35:18;28.90;70.00
21944;DHT22;11136;48.778;9.126;2022-07-29T09:37:45;29.20;69.50
21944;DHT22;11136;48.778;9.126;2022-07-29T09:40:18;29.50;68.20
21944;DHT22;11136;48.778;9.126;2022-07-29T09:42:45;29.50;67.60
21944;DHT22;11136;48.778;9.126;2022-07-29T09:45:11;29.70;66.50
21944;DHT22;11136;48.778;9.126;2022-07-29T09:47:43;29.90;66.00
21944;DHT22;11136;48.778;9.126;2022-07-29T09:50:10;30.10;65.90
21944;DHT22;11136;48.778;9.126;2022-07-29T09:52:46;30.30;65.30
21944;DHT22;11136;48.778;9.126;2022-07-29T09:55:12;30.40;63.90
21944;DHT22;11136;48.778;9.126;2022-07-29T09:57:38;30.50;63.60
21944;DHT22;11136;48.778;9.126;2022-07-29T10:00:08;30.50;63.10
21944;DHT22;11136;48.778;9.126;2022-07-29T10:02:36;30.40;62.00
21944;DHT22;11136;48.778;9.126;2022-07-29T10:05:04;30.20;61.70
21944;DHT22;11136;48.778;9.126;2022-07-29T10:07:56;30.10;61.30
21944;DHT22;11136;48.778;9.126;2022-07-29T10:10:28;29.90;61.70
21944;DHT22;11136;48.778;9.126;2022-07-29T10:12:55;29.70;61.80
21944;DHT22;11136;48.778;9.126;2022-07-29T10:15:23;29.60;62.20
21944;DHT22;11136;48.778;9.126;2022-07-29T10:17:50;29.40;61.90
21944;DHT22;11136;48.778;9.126;2022-07-29T10:20:16;29.20;62.10
21944;DHT22;11136;48.778;9.126;2022-07-29T10:22:42;29.00;62.80
21944;DHT22;11136;48.778;9.126;2022-07-29T10:25:09;28.80;64.10
21944;DHT22;11136;48.778;9.126;2022-07-29T10:27:36;28.60;64.80
21944;DHT22;11136;48.778;9.126;2022-07-29T10:30:03;28.40;65.80
21944;DHT22;11136;48.778;9.126;2022-07-29T10:32:47;28.20;66.50
21944;DHT22;11136;48.778;9.126;2022-07-29T10:38:33;27.90;69.10
21944;DHT22;11136;48.778;9.126;2022-07-29T10:43:46;27.60;70.10
21944;DHT22;11136;48.778;9.126;2022-07-29T10:46:12;27.50;70.70
21944;DHT22;11136;48.778;9.126;2022-07-29T10:52:07;27.30;71.60
21944;DHT22;11136;48.778;9.126;2022-07-29T10:54:44;27.20;72.00
21944;DHT22;11136;48.778;9.126;2022-07-29T10:59:42;27.00;73.50
21944;DHT22;11136;48.778;9.126;2022-07-29T11:05:04;26.80;74.00
21944;DHT22;11136;48.778;9.126;2022-07-29T11:07:30;26.70;74.50
21944;DHT22;11136;48.778;9.126;2022-07-29T11:15:11;26.10;77.40
21944;DHT22;11136;48.778;9.126;2022-07-29T11:18:03;25.90;78.00
21944;DHT22;11136;48.778;9.126;2022-07-29T11:20:45;25.70;79.90
21944;DHT22;11136;48.778;9.126;2022-07-29T11:23:29;25.60;81.70
21944;DHT22;11136;48.778;9.126;2022-07-29T11:26:19;25.50;83.70
21944;DHT22;11136;48.778;9.126;2022-07-29T11:34:20;25.40;87.90
21944;DHT22;11136;48.778;9.126;2022-07-29T11:39:30;25.30;85.30
21944;DHT22;11136;48.778;9.126;2022-07-29T11:45:07;25.30;87.70
21944;DHT22;11136;48.778;9.126;2022-07-29T11:47:35;25.30;88.00
21944;DHT22;11136;48.778;9.126;2022-07-29T11:50:11;25.40;88.10
21944;DHT22;11136;48.778;9.126;2022-07-29T11:52:39;25.40;89.10
21944;DHT22;11136;48.778;9.126;2022-07-29T11:55:17;25.40;90.00
21944;DHT22;11136;48.778;9.126;2022-07-29T11:57:51;25.40;89.30
21944;DHT22;11136;48.778;9.126;2022-07-29T12:00:35;25.40;89.50
21944;DHT22;11136;48.778;9.126;2022-07-29T12:03:05;25.30;89.50
21944;DHT22;11136;48.778;9.126;2022-07-29T12:05:33;25.20;90.20
21944;DHT22;11136;48.778;9.126;2022-07-29T12:08:08;25.20;90.20
21944;DHT22;11136;48.778;9.126;2022-07-29T12:10:34;25.10;90.20
21944;DHT22;11136;48.778;9.126;2022-07-29T12:12:59;25.00;90.20
21944;DHT22;11136;48.778;9.126;2022-07-29T12:15:25;25.00;90.40
21944;DHT22;11136;48.778;9.126;2022-07-29T12:17:51;25.00;90.40
21944;DHT22;11136;48.778;9.126;2022-07-29T12:20:28;25.00;91.00
21944;DHT22;11136;48.778;9.126;2022-07-29T12:22:55;25.00;90.80
21944;DHT22;11136;48.778;9.126;2022-07-29T12:25:22;24.90;90.70
21944;DHT22;11136;48.778;9.126;2022-07-29T12:28:09;24.80;90.70
21944;DHT22;11136;48.778;9.126;2022-07-29T12:30:46;24.70;90.70
21944;DHT22;11136;48.778;9.126;2022-07-29T12:33:21;24.60;90.70
21944;DHT22;11136;48.778;9.126;2022-07-29T12:35:50;24.50;90.90
21944;DHT22;11136;48.778;9.126;2022-07-29T12:38:17;24.40;91.10
21944;DHT22;11136;48.778;9.126;2022-07-29T12:40:44;24.30;91.10
21944;DHT22;11136;48.778;9.126;2022-07-29T12:43:18;24.20;91.20
21944;DHT22;11136;48.778;9.126;2022-07-29T12:45:53;24.20;91.10
21944;DHT22;11136;48.778;9.126;2022-07-29T12:48:36;24.10;91.10
21944;DHT22;11136;48.778;9.126;2022-07-29T12:51:04;24.20;91.60
21944;DHT22;11136;48.778;9.126;2022-07-29T12:53:30;24.20;91.60
21944;DHT22;11136;48.778;9.126;2022-07-29T12:55:58;24.20;91.60
21944;DHT22;11136;48.778;9.126;2022-07-29T12:58:32;24.20;91.30
21944;DHT22;11136;48.778;9.126;2022-07-29T13:03:28;24.20;91.00
21944;DHT22;11136;48.778;9.126;2022-07-29T13:05:54;24.20;90.90
21944;DHT22;11136;48.778;9.126;2022-07-29T13:08:20;24.20;91.00
21944;DHT22;11136;48.778;9.126;2022-07-29T13:10:46;24.20;91.10
21944;DHT22;11136;48.778;9.126;2022-07-29T13:13:13;24.10;91.00
21944;DHT22;11136;48.778;9.126;2022-07-29T13:15:44;24.10;91.20
21944;DHT22;11136;48.778;9.126;2022-07-29T13:18:34;24.00;91.30
21944;DHT22;11136;48.778;9.126;2022-07-29T13:21:13;24.00;91.20
21944;DHT22;11136;48.778;9.126;2022-07-29T13:23:39;23.90;91.40
21944;DHT22;11136;48.778;9.126;2022-07-29T13:26:09;23.80;91.80
21944;DHT22;11136;48.778;9.126;2022-07-29T13:28:35;23.70;92.20
21944;DHT22;11136;48.778;9.126;2022-07-29T13:31:01;23.50;92.30
21944;DHT22;11136;48.778;9.126;2022-07-29T13:33:27;23.20;92.40
21944;DHT22;11136;48.778;9.126;2022-07-29T13:35:52;23.00;92.70
21944;DHT22;11136;48.778;9.126;2022-07-29T13:38:18;22.80;92.90
21944;DHT22;11136;48.778;9.126;2022-07-29T13:40:43;22.70;93.20
21944;DHT22;11136;48.778;9.126;2022-07-29T13:43:10;22.60;93.70
21944;DHT22;11136;48.778;9.126;2022-07-29T13:45:35;22.60;93.90
21944;DHT22;11136;48.778;9.126;2022-07-29T13:48:01;22.60;94.00
21944;DHT22;11136;48.778;9.126;2022-07-29T13:50:26;22.60;94.10
21944;DHT22;11136;48.778;9.126;2022-07-29T13:52:52;22.70;94.20
21944;DHT22;11136;48.778;9.126;2022-07-29T13:55:18;22.90;94.50
21944;DHT22;11136;48.778;9.126;2022-07-29T13:57:43;23.20;95.20
21944;DHT22;11136;48.778;9.126;2022-07-29T14:00:09;23.50;95.90
21944;DHT22;11136;48.778;9.126;2022-07-29T14:02:36;23.90;96.20
21944;DHT22;11136;48.778;9.126;2022-07-29T14:05:03;24.10;96.30
21944;DHT22;11136;48.778;9.126;2022-07-29T14:07:28;24.40;96.40
21944;DHT22;11136;48.778;9.126;2022-07-29T14:09:54;24.60;96.00
21944;DHT22;11136;48.778;9.126;2022-07-29T14:12:19;24.80;95.80
21944;DHT22;11136;48.778;9.126;2022-07-29T14:14:45;25.00;95.10
21944;DHT22;11136;48.778;9.126;2022-07-29T14:17:10;25.20;94.50
21944;DHT22;11136;48.778;9.126;2022-07-29T14:19:36;25.30;94.60
21944;DHT22;11136;48.778;9.126;2022-07-29T14:22:04;25.30;93.70
21944;DHT22;11136;48.778;9.126;2022-07-29T14:24:30;25.30;93.00
21944;DHT22;11136;48.778;9.126;2022-07-29T14:26:56;25.30;92.60
21944;DHT22;11136;48.778;9.126;2022-07-29T14:29:22;25.30;92.30
21944;DHT22;11136;48.778;9.126;2022-07-29T14:31:48;25.20;92.10
21944;DHT22;11136;48.778;9.126;2022-07-29T14:34:14;25.20;92.30
21944;DHT22;11136;48.778;9.126;2022-07-29T14:36:40;25.20;92.10
21944;DHT22;11136;48.778;9.126;2022-07-29T14:39:06;25.20;92.30
21944;DHT22;11136;48.778;9.126;2022-07-29T14:41:32;25.20;92.10
21944;DHT22;11136;48.778;9.126;2022-07-29T14:43:58;25.20;92.10
21944;DHT22;11136;48.778;9.126;2022-07-29T14:46:26;25.20;91.80
21944;DHT22;11136;48.778;9.126;2022-07-29T14:48:51;25.20;92.00
21944;DHT22;11136;48.778;9.126;2022-07-29T14:51:17;25.20;92.50
21944;DHT22;11136;48.778;9.126;2022-07-29T14:53:43;25.30;91.90
21944;DHT22;11136;48.778;9.126;2022-07-29T14:56:08;25.30;91.50
21944;DHT22;11136;48.778;9.126;2022-07-29T14:58:34;25.30;91.60
21944;DHT22;11136;48.778;9.126;2022-07-29T15:00:59;25.30;91.60
21944;DHT22;11136;48.778;9.126;2022-07-29T15:03:26;25.30;91.60
21944;DHT22;11136;48.778;9.126;2022-07-29T15:05:53;25.30;91.70
21944;DHT22;11136;48.778;9.126;2022-07-29T15:08:18;25.30;91.70
21944;DHT22;11136;48.778;9.126;2022-07-29T15:10:44;25.20;91.80
21944;DHT22;11136;48.778;9.126;2022-07-29T15:13:10;25.30;91.80
21944;DHT22;11136;48.778;9.126;2022-07-29T15:15:35;25.30;91.70
21944;DHT22;11136;48.778;9.126;2022-07-29T15:18:01;25.30;91.50
21944;DHT22;11136;48.778;9.126;2022-07-29T15:20:26;25.40;91.60
21944;DHT22;11136;48.778;9.126;2022-07-29T15:22:53;25.30;91.60
21944;DHT22;11136;48.778;9.126;2022-07-29T15:25:18;25.30;91.70
21944;DHT22;11136;48.778;9.126;2022-07-29T15:27:44;25.30;91.70
21944;DHT22;11136;48.778;9.126;2022-07-29T15:30:10;25.30;92.00
21944;DHT22;11136;48.778;9.126;2022-07-29T15:32:36;25.40;92.00
21944;DHT22;11136;48.778;9.126;2022-07-29T15:35:01;25.30;91.90
21944;DHT22;11136;48.778;9.126;2022-07-29T15:37:28;25.40;92.00
21944;DHT22;11136;48.778;9.126;2022-07-29T15:39:54;25.30;92.20
21944;DHT22;11136;48.778;9.126;2022-07-29T15:42:19;25.40;92.10
21944;DHT22;11136;48.778;9.126;2022-07-29T15:44:45;25.30;92.10
21944;DHT22;11136;48.778;9.126;2022-07-29T15:47:10;25.30;92.10
21944;DHT22;11136;48.778;9.126;2022-07-29T15:49:38;25.40;92.20
21944;DHT22;11136;48.778;9.126;2022-07-29T15:52:07;25.30;92.20
21944;DHT22;11136;48.778;9.126;2022-07-29T15:54:35;25.30;92.40
21944;DHT22;11136;48.778;9.126;2022-07-29T15:57:01;25.30;92.80
21944;DHT22;11136;48.778;9.126;2022-07-29T15:59:27;25.20;92.90
21944;DHT22;11136;48.778;9.126;2022-07-29T16:01:52;25.30;93.20
21944;DHT22;11136;48.778;9.126;2022-07-29T16:04:19;25.20;93.30
21944;DHT22;11136;48.778;9.126;2022-07-29T16:06:45;25.20;93.60
21944;DHT22;11136;48.778;9.126;2022-07-29T16:09:11;25.20;93.80
21944;DHT22;11136;48.778;9.126;2022-07-29T16:11:37;25.10;94.00
21944;DHT22;11136;48.778;9.126;2022-07-29T16:14:03;25.20;94.20
21944;DHT22;11136;48.778;9.126;2022-07-29T16:16:29;25.20;94.30
21944;DHT22;11136;48.778;9.126;2022-07-29T16:18:54;25.10;94.30